createdAt,value
2022-10-11T00:01:32.846Z,0.10
2022-10-11T00:03:59.689Z,0.10
2022-10-11T00:06:26.547Z,0.10
2022-10-11T00:08:54.723Z,0.10
2022-10-11T00:11:21.534Z,0.10
2022-10-11T00:13:48.378Z,0.10
2022-10-11T00:16:15.539Z,0.10
2022-10-11T00:18:42.748Z,0.10
2022-10-11T00:21:12.033Z,0.10
2022-10-11T00:23:39.102Z,0.10
2022-10-11T00:26:09.368Z,0.08
2022-10-11T00:28:37.312Z,0.10
2022-10-11T00:31:08.125Z,0.10
2022-10-11T00:33:35.484Z,0.00
2022-10-11T00:36:03.025Z,0.10
2022-10-11T00:38:31.976Z,0.10
2022-10-11T00:40:59.709Z,0.10
2022-10-11T00:43:30.294Z,0.00
2022-10-11T00:46:29.868Z,0.10
2022-10-11T00:49:03.032Z,0.00
2022-10-11T00:51:37.681Z,0.00
2022-10-11T00:54:07.579Z,0.10
2022-10-11T00:56:37.423Z,0.00
2022-10-11T00:59:10.898Z,0.00
2022-10-11T01:01:37.793Z,0.08
2022-10-11T01:04:05.016Z,0.10
2022-10-11T01:06:34.527Z,0.00
2022-10-11T01:09:01.484Z,0.10
2022-10-11T01:11:30.785Z,0.10
2022-10-11T01:14:18.851Z,0.10
2022-10-11T01:16:52.990Z,0.10
2022-10-11T01:19:38.627Z,0.10
2022-10-11T01:22:22.437Z,0.10
2022-10-11T01:25:07.865Z,0.00
2022-10-11T01:27:46.809Z,0.10
2022-10-11T01:30:21.755Z,0.10
2022-10-11T01:32:57.573Z,0.10
2022-10-11T01:35:30.145Z,0.00
2022-10-11T01:38:01.502Z,0.10
2022-10-11T01:40:33.671Z,0.10
2022-10-11T01:43:01.614Z,0.00
2022-10-11T01:45:31.080Z,0.10
2022-10-11T01:48:03.286Z,0.10
2022-10-11T01:50:40.935Z,0.10
2022-10-11T01:53:34.677Z,0.00
2022-10-11T01:56:14.747Z,0.10
2022-10-11T02:01:24.572Z,0.10
2022-10-11T02:03:59.805Z,0.10
2022-10-11T02:06:33.658Z,0.10
2022-10-11T02:09:08.194Z,0.00
2022-10-11T02:11:36.360Z,0.00
2022-10-11T02:14:09.643Z,0.10
2022-10-11T02:16:42.600Z,0.10
2022-10-11T02:19:13.026Z,0.10
2022-10-11T02:21:42.303Z,0.10
2022-10-11T02:24:14.929Z,0.00
2022-10-11T02:26:44.173Z,0.10
2022-10-11T02:29:14.193Z,0.10
2022-10-11T02:34:14.728Z,0.10
2022-10-11T02:36:47.573Z,0.00
2022-10-11T02:39:18.734Z,0.10
2022-10-11T02:41:47.470Z,0.10
2022-10-11T02:44:19.734Z,0.10
2022-10-11T02:46:50.078Z,0.10
2022-10-11T02:49:18.066Z,0.10
2022-10-11T02:51:44.934Z,0.10
2022-10-11T02:54:11.729Z,0.08
2022-10-11T02:56:38.503Z,0.00
2022-10-11T02:59:05.314Z,0.10
2022-10-11T03:01:32.169Z,0.00
2022-10-11T03:04:00.366Z,0.05
2022-10-11T03:06:27.244Z,0.10
2022-10-11T03:08:54.030Z,0.00
2022-10-11T03:11:20.862Z,0.10
2022-10-11T03:13:47.699Z,0.00
2022-10-11T03:16:15.050Z,0.00
2022-10-11T03:18:42.089Z,0.00
2022-10-11T03:21:10.511Z,0.10
2022-10-11T03:23:37.452Z,0.10
2022-10-11T03:26:04.829Z,0.10
2022-10-11T03:28:31.993Z,0.10
2022-10-11T03:30:58.960Z,0.10
2022-10-11T03:33:25.753Z,0.10
2022-10-11T03:35:52.570Z,0.10
2022-10-11T03:38:22.400Z,0.10
2022-10-11T03:40:49.298Z,0.10
2022-10-11T03:43:16.158Z,0.10
2022-10-11T03:45:42.971Z,0.05
2022-10-11T03:48:10.239Z,0.10
2022-10-11T03:50:37.921Z,0.10
2022-10-11T03:53:06.008Z,0.10
2022-10-11T03:55:34.295Z,0.10
2022-10-11T03:58:01.086Z,0.10
2022-10-11T04:00:27.974Z,0.10
2022-10-11T04:02:54.836Z,0.10
2022-10-11T04:05:21.617Z,0.10
2022-10-11T04:07:48.598Z,0.10
2022-10-11T04:10:15.418Z,0.10
2022-10-11T04:12:43.953Z,0.10
2022-10-11T04:15:13.312Z,0.10
2022-10-11T04:17:40.385Z,0.10
2022-10-11T04:20:08.546Z,0.10
2022-10-11T04:22:35.388Z,0.10
2022-10-11T04:25:02.495Z,0.13
2022-10-11T04:27:29.368Z,0.08
2022-10-11T04:29:57.621Z,0.08
2022-10-11T04:32:24.441Z,0.10
2022-10-11T04:34:51.293Z,0.10
2022-10-11T04:37:18.579Z,0.38
2022-10-11T04:39:45.525Z,0.15
2022-10-11T04:42:12.599Z,0.20
2022-10-11T04:44:39.403Z,0.22
2022-10-11T04:47:07.622Z,0.20
2022-10-11T04:49:34.407Z,0.10
2022-10-11T04:52:01.403Z,0.10
2022-10-11T04:54:28.286Z,0.10
2022-10-11T04:56:55.147Z,0.52
2022-10-11T04:59:21.929Z,0.20
2022-10-11T05:01:48.891Z,0.10
2022-10-11T05:04:17.072Z,0.30
2022-10-11T05:06:43.979Z,0.20
2022-10-11T05:09:10.872Z,0.10
2022-10-11T05:11:37.666Z,0.10
2022-10-11T05:14:04.481Z,0.30
2022-10-11T05:16:31.327Z,0.20
2022-10-11T05:18:58.158Z,0.20
2022-10-11T05:21:28.348Z,0.60
2022-10-11T05:23:56.362Z,0.43
2022-10-11T05:26:24.521Z,0.30
2022-10-11T05:28:52.218Z,0.40
2022-10-11T05:31:19.541Z,0.22
2022-10-11T05:33:46.786Z,0.30
2022-10-11T05:36:14.033Z,0.90
2022-10-11T05:38:42.334Z,0.47
2022-10-11T05:41:11.473Z,0.45
2022-10-11T05:43:38.240Z,1.20
2022-10-11T05:46:05.658Z,0.98
2022-10-11T05:48:32.715Z,0.47
2022-10-11T05:51:00.470Z,1.83
2022-10-11T05:53:27.431Z,1.27
2022-10-11T05:55:56.168Z,0.95
2022-10-11T05:58:23.118Z,0.63
2022-10-11T06:00:50.092Z,1.00
2022-10-11T06:03:17.624Z,0.70
2022-10-11T06:05:44.445Z,0.38
2022-10-11T06:08:11.282Z,0.30
2022-10-11T06:10:38.767Z,0.10
2022-10-11T06:13:07.454Z,0.10
2022-10-11T06:15:34.642Z,0.20
2022-10-11T06:18:01.533Z,0.20
2022-10-11T06:20:28.577Z,0.10
2022-10-11T06:22:55.513Z,0.20
2022-10-11T06:25:22.366Z,0.10
2022-10-11T06:27:49.220Z,0.10
2022-10-11T06:30:18.024Z,0.17
2022-10-11T06:32:44.841Z,0.10
2022-10-11T06:35:11.933Z,0.10
2022-10-11T06:37:38.764Z,0.10
2022-10-11T06:40:06.735Z,0.10
2022-10-11T06:42:33.526Z,0.10
2022-10-11T06:45:00.327Z,0.10
2022-10-11T06:47:28.508Z,0.10
2022-10-11T06:49:55.290Z,0.10
2022-10-11T06:52:22.095Z,0.20
2022-10-11T06:54:48.919Z,0.30
2022-10-11T06:57:15.832Z,0.13
2022-10-11T06:59:43.064Z,0.20
2022-10-11T07:02:10.494Z,0.30
2022-10-11T07:04:39.270Z,0.20
2022-10-11T07:07:06.161Z,0.10
2022-10-11T07:09:34.504Z,0.20
2022-10-11T07:12:01.296Z,0.10
2022-10-11T07:14:28.280Z,0.10
2022-10-11T07:16:55.162Z,0.20
2022-10-11T07:19:21.962Z,0.10
2022-10-11T07:21:50.269Z,0.22
2022-10-11T07:24:17.062Z,0.20
2022-10-11T07:26:43.848Z,0.20
2022-10-11T07:29:11.789Z,0.10
2022-10-11T07:31:40.972Z,0.22
2022-10-11T07:34:08.438Z,0.10
2022-10-11T07:36:35.706Z,0.20
2022-10-11T07:39:05.892Z,0.10
2022-10-11T07:41:32.789Z,0.20
2022-10-11T07:43:59.661Z,0.20
2022-10-11T07:46:26.534Z,0.30
2022-10-11T07:48:54.281Z,0.20
2022-10-11T07:51:22.604Z,0.20
2022-10-11T07:53:51.542Z,0.20
2022-10-11T07:56:22.335Z,0.20
2022-10-11T07:58:51.309Z,0.30
2022-10-11T08:01:18.650Z,0.15
2022-10-11T08:03:46.453Z,0.20
2022-10-11T08:06:15.496Z,0.10
2022-10-11T08:08:42.582Z,0.38
2022-10-11T08:11:09.655Z,0.60
2022-10-11T08:13:37.907Z,0.20
2022-10-11T08:16:11.095Z,0.35
2022-10-11T08:18:38.193Z,0.20
2022-10-11T08:21:09.057Z,0.20
2022-10-11T08:23:35.988Z,0.10
2022-10-11T08:26:03.593Z,0.38
2022-10-11T08:28:30.755Z,0.10
2022-10-11T08:30:59.235Z,0.17
2022-10-11T08:33:26.495Z,0.10
2022-10-11T08:35:55.304Z,0.10
2022-10-11T08:38:22.273Z,0.10
2022-10-11T08:40:52.006Z,0.10
2022-10-11T08:43:29.629Z,0.10
2022-10-11T08:46:01.035Z,0.10
2022-10-11T08:48:34.504Z,0.10
2022-10-11T08:51:02.603Z,0.20
2022-10-11T08:53:42.351Z,0.10
2022-10-11T08:56:11.776Z,0.03
2022-10-11T08:58:44.383Z,0.10
2022-10-11T09:01:17.875Z,0.10
2022-10-11T09:03:46.446Z,0.20
2022-10-11T09:06:26.328Z,0.15
2022-10-11T09:09:09.838Z,0.10
2022-10-11T09:11:51.662Z,0.10
2022-10-11T09:14:57.915Z,0.10
2022-10-11T09:17:42.182Z,0.10
2022-10-11T09:20:39.574Z,0.10
2022-10-11T09:23:18.740Z,0.10
2022-10-11T09:25:51.382Z,0.00
2022-10-11T09:28:29.161Z,0.10
2022-10-11T09:30:58.010Z,0.10
2022-10-11T09:33:33.123Z,0.00
2022-10-11T09:36:01.513Z,0.10
2022-10-11T09:38:38.045Z,0.10
2022-10-11T09:41:13.452Z,0.00
2022-10-11T09:43:40.412Z,0.00
2022-10-11T09:46:19.405Z,0.10
2022-10-11T09:48:47.947Z,0.08
2022-10-11T09:51:19.805Z,0.00
2022-10-11T09:53:56.689Z,0.00
2022-10-11T09:56:25.229Z,0.10
2022-10-11T09:59:18.512Z,0.00
2022-10-11T10:01:45.699Z,0.10
2022-10-11T10:04:16.960Z,0.00
2022-10-11T10:06:44.109Z,0.00
2022-10-11T10:09:25.257Z,0.10
2022-10-11T10:11:52.729Z,0.10
2022-10-11T10:14:22.796Z,0.03
2022-10-11T10:19:25.909Z,0.00
2022-10-11T10:21:55.106Z,0.08
2022-10-11T10:24:31.303Z,0.00
2022-10-11T10:27:18.018Z,0.00
2022-10-11T10:30:00.222Z,0.00
2022-10-11T10:32:31.440Z,0.00
2022-10-11T10:35:07.688Z,0.00
2022-10-11T10:37:39.565Z,0.00
2022-10-11T10:40:10.075Z,0.00
2022-10-11T10:42:37.690Z,0.00
2022-10-11T10:45:12.129Z,0.00
2022-10-11T10:47:54.291Z,0.00
2022-10-11T10:50:27.376Z,0.10
2022-10-11T10:53:05.907Z,0.10
2022-10-11T10:55:37.477Z,0.00
2022-10-11T10:58:23.763Z,0.00
2022-10-11T11:00:53.032Z,0.00
2022-10-11T11:03:26.512Z,0.00
2022-10-11T11:06:02.115Z,0.00
2022-10-11T11:08:43.975Z,0.00
2022-10-11T11:11:25.179Z,0.00
2022-10-11T11:13:58.373Z,0.00
2022-10-11T11:16:32.793Z,0.00
2022-10-11T11:19:06.631Z,0.00
2022-10-11T11:21:44.260Z,0.00
2022-10-11T11:24:21.165Z,0.00
2022-10-11T11:26:55.445Z,0.00
2022-10-11T11:29:37.360Z,0.00
2022-10-11T11:32:14.053Z,0.00
2022-10-11T11:34:45.425Z,0.00
2022-10-11T11:37:22.813Z,0.00
2022-10-11T11:39:52.578Z,0.00
2022-10-11T11:42:24.388Z,0.00
2022-10-11T11:44:52.194Z,0.00
2022-10-11T11:47:25.165Z,0.00
2022-10-11T11:49:58.104Z,0.00
2022-10-11T11:52:31.490Z,0.00
2022-10-11T11:55:07.656Z,0.00
2022-10-11T11:57:50.223Z,0.00
2022-10-11T12:00:20.007Z,0.00
2022-10-11T12:02:53.324Z,0.00
2022-10-11T12:05:22.580Z,0.00
2022-10-11T12:07:55.724Z,0.00
2022-10-11T12:10:36.150Z,0.00
2022-10-11T12:13:16.970Z,0.00
2022-10-11T12:15:57.915Z,0.00
2022-10-11T12:18:25.350Z,0.00
2022-10-11T12:21:02.526Z,0.00
2022-10-11T12:23:44.079Z,0.00
2022-10-11T12:26:41.583Z,0.00
2022-10-11T12:29:41.587Z,0.00
2022-10-11T12:35:31.670Z,0.00
2022-10-11T12:38:05.730Z,0.00
2022-10-11T12:40:36.758Z,0.00
2022-10-11T12:43:22.362Z,0.00
2022-10-11T12:45:49.427Z,0.00
2022-10-11T12:48:45.234Z,0.00
2022-10-11T12:51:33.697Z,0.00
2022-10-11T12:54:32.137Z,0.00
2022-10-11T12:57:38.962Z,0.00
2022-10-11T13:00:17.870Z,0.00
2022-10-11T13:02:44.966Z,0.00
2022-10-11T13:05:19.829Z,0.00
2022-10-11T13:07:46.908Z,0.00
2022-10-11T13:10:15.729Z,0.00
2022-10-11T13:12:46.695Z,0.00
2022-10-11T13:15:17.130Z,0.00
2022-10-11T13:17:44.116Z,0.00
2022-10-11T13:20:18.690Z,0.00
2022-10-11T13:22:49.597Z,0.00
2022-10-11T13:25:19.330Z,0.00
2022-10-11T13:27:49.264Z,0.00
2022-10-11T13:32:45.858Z,0.00
2022-10-11T13:35:22.343Z,0.00
2022-10-11T13:37:51.739Z,0.00
2022-10-11T13:40:20.607Z,0.00
2022-10-11T13:42:50.646Z,0.00
2022-10-11T13:45:21.022Z,0.00
2022-10-11T13:47:48.900Z,0.00
2022-10-11T13:50:23.893Z,0.00
2022-10-11T13:52:54.968Z,0.00
2022-10-11T13:55:31.735Z,0.00
2022-10-11T13:58:03.120Z,0.00
2022-10-11T14:00:33.449Z,0.00
2022-10-11T14:03:03.811Z,0.00
2022-10-11T14:05:37.386Z,0.00
2022-10-11T14:08:07.440Z,0.00
2022-10-11T14:10:34.726Z,0.00
2022-10-11T14:13:06.796Z,0.00
2022-10-11T14:15:35.860Z,0.00
2022-10-11T14:18:33.467Z,0.00
2022-10-11T14:21:28.919Z,0.00
2022-10-11T14:23:57.794Z,0.00
2022-10-11T14:26:26.023Z,0.00
2022-10-11T14:28:57.237Z,0.00
2022-10-11T14:31:24.428Z,0.00
2022-10-11T14:33:52.504Z,0.00
2022-10-11T14:36:20.326Z,0.00
2022-10-11T14:38:47.113Z,0.00
2022-10-11T14:41:13.949Z,0.00
2022-10-11T14:43:40.746Z,0.00
2022-10-11T14:46:13.532Z,0.00
2022-10-11T14:48:54.894Z,0.00
2022-10-11T14:51:25.164Z,0.00
2022-10-11T14:53:52.042Z,0.00
2022-10-11T14:56:21.438Z,0.00
2022-10-11T14:58:49.062Z,0.00
2022-10-11T15:01:17.773Z,0.00
2022-10-11T15:03:45.032Z,0.00
2022-10-11T15:06:17.146Z,0.00
2022-10-11T15:08:44.328Z,0.00
2022-10-11T15:11:11.622Z,0.00
2022-10-11T15:13:38.526Z,0.00
2022-10-11T15:16:05.954Z,0.00
2022-10-11T15:18:34.674Z,0.00
2022-10-11T15:21:01.606Z,0.00
2022-10-11T15:23:28.642Z,0.00
2022-10-11T15:25:55.919Z,0.00
2022-10-11T15:28:27.181Z,0.00
2022-10-11T15:30:54.858Z,0.00
2022-10-11T15:33:22.000Z,0.00
2022-10-11T15:35:50.341Z,0.00
2022-10-11T15:38:19.939Z,0.00
2022-10-11T15:40:47.991Z,0.00
2022-10-11T15:43:15.182Z,0.00
2022-10-11T15:45:42.359Z,0.00
2022-10-11T15:48:13.796Z,0.00
2022-10-11T15:50:41.478Z,0.00
2022-10-11T15:53:12.282Z,0.00
2022-10-11T15:55:41.761Z,0.00
2022-10-11T15:58:14.466Z,0.00
2022-10-11T16:00:41.521Z,0.00
2022-10-11T16:03:10.565Z,0.00
2022-10-11T16:05:37.373Z,0.00
2022-10-11T16:08:04.391Z,0.03
2022-10-11T16:10:32.794Z,0.00
2022-10-11T16:12:59.791Z,0.00
2022-10-11T16:15:26.903Z,0.00
2022-10-11T16:17:54.142Z,0.00
2022-10-11T16:20:22.428Z,0.00
2022-10-11T16:22:49.797Z,0.00
2022-10-11T16:25:17.217Z,0.00
2022-10-11T16:27:45.583Z,0.00
2022-10-11T16:30:14.027Z,0.00
2022-10-11T16:32:41.473Z,0.00
2022-10-11T16:35:10.823Z,0.00
2022-10-11T16:37:37.790Z,0.00
2022-10-11T16:40:06.042Z,0.00
2022-10-11T16:42:33.016Z,0.08
2022-10-11T16:45:01.316Z,0.00
2022-10-11T16:47:28.144Z,0.00
2022-10-11T16:49:54.955Z,0.00
2022-10-11T16:52:21.753Z,0.00
2022-10-11T16:54:48.806Z,0.00
2022-10-11T16:57:17.685Z,0.00
2022-10-11T16:59:44.772Z,0.00
2022-10-11T17:02:15.854Z,0.10
2022-10-11T17:04:42.697Z,0.00
2022-10-11T17:07:12.332Z,0.00
2022-10-11T17:09:43.760Z,0.00
2022-10-11T17:12:13.063Z,0.00
2022-10-11T17:14:41.008Z,0.00
2022-10-11T17:17:09.093Z,0.00
2022-10-11T17:19:42.618Z,0.10
2022-10-11T17:22:13.132Z,0.00
2022-10-11T17:24:40.090Z,0.10
2022-10-11T17:27:07.993Z,0.00
2022-10-11T17:29:35.307Z,0.10
2022-10-11T17:32:02.163Z,0.00
2022-10-11T17:34:28.969Z,0.00
2022-10-11T17:36:57.147Z,0.10
2022-10-11T17:39:25.794Z,0.00
2022-10-11T17:41:52.841Z,0.05
2022-10-11T17:44:20.583Z,0.00
2022-10-11T17:46:47.761Z,0.00
2022-10-11T17:49:15.049Z,0.03
2022-10-11T17:51:42.214Z,0.00
2022-10-11T17:54:12.788Z,0.10
2022-10-11T17:56:41.376Z,0.00
2022-10-11T17:59:10.972Z,0.00
2022-10-11T18:01:38.562Z,0.10
2022-10-11T18:04:06.103Z,0.10
2022-10-11T18:06:37.414Z,0.10
2022-10-11T18:09:04.607Z,0.00
2022-10-11T18:11:33.335Z,0.00
2022-10-11T18:14:00.469Z,0.00
2022-10-11T18:16:29.314Z,0.10
2022-10-11T18:18:57.325Z,0.00
2022-10-11T18:21:24.462Z,0.10
2022-10-11T18:23:51.447Z,0.10
2022-10-11T18:26:19.919Z,0.10
2022-10-11T18:28:48.704Z,0.10
2022-10-11T18:31:18.079Z,0.10
2022-10-11T18:33:46.248Z,0.10
2022-10-11T18:36:15.010Z,0.00
2022-10-11T18:38:46.161Z,0.10
2022-10-11T18:41:14.796Z,0.10
2022-10-11T18:43:41.820Z,0.10
2022-10-11T18:46:11.489Z,0.10
2022-10-11T18:48:39.728Z,0.10
2022-10-11T18:51:10.682Z,0.10
2022-10-11T18:53:38.872Z,0.00
2022-10-11T18:56:07.741Z,0.10
2022-10-11T18:58:36.717Z,0.10
2022-10-11T19:01:04.982Z,0.10
2022-10-11T19:03:35.239Z,0.10
2022-10-11T19:06:03.941Z,0.10
2022-10-11T19:08:31.417Z,0.10
2022-10-11T19:11:04.089Z,0.10
2022-10-11T19:13:31.009Z,0.10
2022-10-11T19:16:04.552Z,0.10
2022-10-11T19:18:33.072Z,0.00
2022-10-11T19:21:03.833Z,0.10
2022-10-11T19:23:34.641Z,0.10
2022-10-11T19:26:02.122Z,0.00
2022-10-11T19:28:38.057Z,0.10
2022-10-11T19:31:06.886Z,0.10
2022-10-11T19:33:35.434Z,0.10
2022-10-11T19:36:04.756Z,0.05
2022-10-11T19:38:32.125Z,0.10
2022-10-11T19:41:00.864Z,0.10
2022-10-11T19:43:28.131Z,0.10
2022-10-11T19:46:00.418Z,0.17
2022-10-11T19:48:27.753Z,0.10
2022-10-11T19:51:03.653Z,0.10
2022-10-11T19:53:30.525Z,0.10
2022-10-11T19:56:00.584Z,0.00
2022-10-11T20:01:00.386Z,0.00
2022-10-11T20:03:27.240Z,0.10
2022-10-11T20:05:54.042Z,0.10
2022-10-11T20:08:23.245Z,0.10
2022-10-11T20:10:53.102Z,0.10
2022-10-11T20:13:19.983Z,0.10
2022-10-11T20:15:46.777Z,0.00
2022-10-11T20:18:13.627Z,0.10
2022-10-11T20:20:50.031Z,0.10
2022-10-11T20:23:18.211Z,0.10
2022-10-11T20:25:56.126Z,0.10
2022-10-11T20:28:22.968Z,0.10
2022-10-11T20:30:49.766Z,0.10
2022-10-11T20:33:16.653Z,0.10
2022-10-11T20:35:43.439Z,0.10
2022-10-11T20:38:10.243Z,0.10
2022-10-11T20:40:39.914Z,0.10
2022-10-11T20:43:08.200Z,0.10
2022-10-11T20:45:34.982Z,0.10
2022-10-11T20:48:01.903Z,0.03
2022-10-11T20:50:28.704Z,0.10
2022-10-11T20:52:55.782Z,0.10
2022-10-11T20:55:22.578Z,0.10
2022-10-11T20:57:49.841Z,0.10
2022-10-11T21:00:18.526Z,0.10
2022-10-11T21:02:45.516Z,0.10
2022-10-11T21:05:12.352Z,0.10
2022-10-11T21:07:39.127Z,0.10
2022-10-11T21:10:06.450Z,0.10
2022-10-11T21:12:33.492Z,0.10
2022-10-11T21:15:00.477Z,0.10
2022-10-11T21:17:28.626Z,0.10
2022-10-11T21:19:55.686Z,0.00
2022-10-11T21:22:22.507Z,0.03
2022-10-11T21:24:49.330Z,0.00
2022-10-11T21:27:16.108Z,0.10
2022-10-11T21:29:43.109Z,0.10
2022-10-11T21:32:14.273Z,0.10
2022-10-11T21:34:42.794Z,0.10
2022-10-11T21:37:09.576Z,0.10
2022-10-11T21:39:36.460Z,0.05
2022-10-11T21:42:03.392Z,0.00
2022-10-11T21:44:32.369Z,0.10
2022-10-11T21:47:07.192Z,0.10
2022-10-11T21:49:34.522Z,0.00
2022-10-11T21:52:03.423Z,0.00
2022-10-11T21:54:30.268Z,0.10
2022-10-11T21:56:57.076Z,0.10
2022-10-11T21:59:23.930Z,0.10
2022-10-11T22:01:50.934Z,0.10
2022-10-11T22:04:17.820Z,0.10
2022-10-11T22:06:44.596Z,0.10
2022-10-11T22:09:12.817Z,0.00
2022-10-11T22:11:39.699Z,0.10
2022-10-11T22:14:06.830Z,0.10
2022-10-11T22:16:33.768Z,0.10
2022-10-11T22:19:00.660Z,0.10
2022-10-11T22:21:27.817Z,0.10
2022-10-11T22:23:54.673Z,0.10
2022-10-11T22:26:25.183Z,0.10
2022-10-11T22:28:53.322Z,0.10
2022-10-11T22:31:20.650Z,0.10
2022-10-11T22:33:47.892Z,0.10
2022-10-11T22:36:19.031Z,0.08
2022-10-11T22:38:46.480Z,0.10
2022-10-11T22:41:13.531Z,0.10
2022-10-11T22:43:41.727Z,0.10
2022-10-11T22:46:08.868Z,0.10
2022-10-11T22:48:36.139Z,0.10
2022-10-11T22:51:03.485Z,0.10
2022-10-11T22:53:31.202Z,0.00
2022-10-11T22:55:58.093Z,0.10
2022-10-11T22:58:25.191Z,0.10
2022-10-11T23:00:53.333Z,0.10
2022-10-11T23:03:20.404Z,0.10
2022-10-11T23:05:54.277Z,0.10
2022-10-11T23:08:21.332Z,0.10
2022-10-11T23:10:48.454Z,0.10
2022-10-11T23:13:15.322Z,0.10
2022-10-11T23:15:42.787Z,0.10
2022-10-11T23:18:11.044Z,0.10
2022-10-11T23:20:38.654Z,0.10
2022-10-11T23:23:05.996Z,0.10
2022-10-11T23:25:32.808Z,0.10
2022-10-11T23:28:00.925Z,0.10
2022-10-11T23:30:28.873Z,0.10
2022-10-11T23:32:55.758Z,0.03
2022-10-11T23:35:24.076Z,0.10
2022-10-11T23:37:53.074Z,0.00
2022-10-11T23:40:19.912Z,0.10
2022-10-11T23:42:46.741Z,0.10
2022-10-11T23:45:13.729Z,0.10
2022-10-11T23:47:40.776Z,0.10
2022-10-11T23:50:08.859Z,0.08
2022-10-11T23:52:37.065Z,0.10
2022-10-11T23:55:04.232Z,0.10
2022-10-11T23:57:31.068Z,0.00
2022-10-11T23:59:57.915Z,0.10
